createdAt,value
2018-11-21T00:01:19.264Z,31.93
2018-11-21T00:03:48.124Z,31.97
2018-11-21T00:06:16.922Z,29.57
2018-11-21T00:08:45.855Z,31.33
2018-11-21T00:11:14.610Z,30.73
2018-11-21T00:13:43.576Z,31.27
2018-11-21T00:16:12.373Z,30.60
2018-11-21T00:18:41.295Z,36.43
2018-11-21T00:21:10.186Z,35.70
2018-11-21T00:23:39.041Z,36.63
2018-11-21T00:26:07.848Z,29.50
2018-11-21T00:28:36.646Z,31.00
2018-11-21T00:31:05.808Z,31.93
2018-11-21T00:33:34.692Z,32.90
2018-11-21T00:36:03.461Z,30.30
2018-11-21T00:38:32.233Z,31.23
2018-11-21T00:41:01.192Z,31.47
2018-11-21T00:43:29.954Z,29.50
2018-11-21T00:45:58.642Z,36.43
2018-11-21T00:48:27.390Z,34.30
2018-11-21T00:50:56.543Z,36.87
2018-11-21T00:53:25.238Z,32.27
2018-11-21T00:55:54.204Z,31.90
2018-11-21T00:58:22.982Z,31.63
2018-11-21T01:00:51.869Z,32.27
2018-11-21T01:03:20.533Z,33.70
2018-11-21T01:05:49.263Z,33.17
2018-11-21T01:08:18.005Z,34.93
2018-11-21T01:11:02.265Z,32.70
2018-11-21T01:13:31.051Z,35.60
2018-11-21T01:15:59.742Z,32.90
2018-11-21T01:18:28.450Z,37.37
2018-11-21T01:20:57.290Z,34.90
2018-11-21T01:23:25.986Z,31.40
2018-11-21T01:25:54.686Z,35.13
2018-11-21T01:28:23.452Z,33.93
2018-11-21T01:30:52.157Z,36.67
2018-11-21T01:33:20.836Z,33.13
2018-11-21T01:35:49.536Z,29.67
2018-11-21T01:38:18.357Z,32.47
2018-11-21T01:40:47.220Z,31.43
2018-11-21T01:43:22.667Z,23.23
2018-11-21T01:45:51.599Z,25.07
2018-11-21T01:48:20.534Z,29.03
2018-11-21T01:50:49.473Z,32.10
2018-11-21T01:53:18.420Z,32.20
2018-11-21T01:55:47.391Z,26.40
2018-11-21T01:58:16.469Z,28.27
2018-11-21T02:00:45.351Z,30.20
2018-11-21T02:03:14.242Z,28.47
2018-11-21T02:05:43.183Z,28.50
2018-11-21T02:08:12.098Z,27.97
2018-11-21T02:10:41.012Z,30.20
2018-11-21T02:13:09.987Z,29.77
2018-11-21T02:15:38.957Z,33.63
2018-11-21T02:18:07.835Z,33.07
2018-11-21T02:20:36.883Z,36.50
2018-11-21T02:23:05.868Z,31.13
2018-11-21T02:25:34.870Z,32.10
2018-11-21T02:28:03.860Z,36.27
2018-11-21T02:30:32.850Z,36.30
2018-11-21T02:33:01.739Z,35.77
2018-11-21T02:35:30.801Z,39.67
2018-11-21T02:37:59.657Z,40.43
2018-11-21T02:40:28.594Z,32.53
2018-11-21T02:42:57.661Z,38.03
2018-11-21T02:45:26.578Z,32.80
2018-11-21T02:47:55.522Z,37.03
2018-11-21T02:50:24.410Z,34.30
2018-11-21T02:52:53.612Z,33.57
2018-11-21T02:55:22.553Z,31.30
2018-11-21T02:57:51.502Z,39.77
2018-11-21T03:00:22.555Z,35.63
2018-11-21T03:02:51.570Z,40.50
2018-11-21T03:05:20.521Z,37.60
2018-11-21T03:07:53.422Z,38.60
2018-11-21T03:10:23.255Z,36.90
2018-11-21T03:12:52.137Z,39.77
2018-11-21T03:15:21.180Z,38.53
2018-11-21T03:17:50.091Z,37.13
2018-11-21T03:20:19.241Z,38.30
2018-11-21T03:22:48.329Z,43.97
2018-11-21T03:25:17.218Z,34.10
2018-11-21T03:27:46.140Z,37.67
2018-11-21T03:30:15.077Z,34.57
2018-11-21T03:32:44.018Z,36.00
2018-11-21T03:35:13.021Z,35.67
2018-11-21T03:37:41.936Z,39.77
2018-11-21T03:40:12.250Z,38.03
2018-11-21T03:42:41.829Z,35.57
2018-11-21T03:45:12.023Z,36.47
2018-11-21T03:47:41.269Z,36.67
2018-11-21T03:50:11.613Z,33.13
2018-11-21T03:52:40.611Z,37.33
2018-11-21T03:55:10.080Z,36.00
2018-11-21T03:57:39.120Z,38.53
2018-11-21T04:00:10.278Z,34.00
2018-11-21T04:02:39.215Z,37.47
2018-11-21T04:05:09.151Z,30.87
2018-11-21T04:07:38.387Z,34.33
2018-11-21T04:10:10.673Z,34.23
2018-11-21T04:12:39.971Z,36.60
2018-11-21T04:15:10.599Z,30.00
2018-11-21T04:17:39.578Z,38.27
2018-11-21T04:20:08.940Z,35.60
2018-11-21T04:22:38.022Z,39.00
2018-11-21T04:25:11.072Z,34.63
2018-11-21T04:27:40.269Z,34.77
2018-11-21T04:30:11.280Z,36.13
2018-11-21T04:32:45.461Z,40.37
2018-11-21T04:35:22.200Z,39.60
2018-11-21T04:37:48.999Z,37.43
2018-11-21T04:40:20.349Z,35.57
2018-11-21T04:42:49.321Z,34.83
2018-11-21T04:45:19.629Z,36.87
2018-11-21T04:47:57.149Z,34.83
2018-11-21T04:50:26.111Z,37.00
2018-11-21T04:53:19.059Z,33.27
2018-11-21T04:55:57.029Z,41.03
2018-11-21T04:58:38.191Z,34.77
2018-11-21T05:01:10.432Z,37.13
2018-11-21T05:03:55.776Z,38.97
2018-11-21T05:06:27.013Z,33.23
2018-11-21T05:08:58.555Z,28.53
2018-11-21T05:11:36.671Z,34.13
2018-11-21T05:14:07.511Z,31.97
2018-11-21T05:16:38.058Z,32.87
2018-11-21T05:19:06.870Z,35.33
2018-11-21T05:21:35.616Z,33.20
2018-11-21T05:24:04.663Z,34.03
2018-11-21T05:26:35.059Z,30.13
2018-11-21T05:29:10.631Z,32.83
2018-11-21T05:31:39.514Z,28.37
2018-11-21T05:34:08.580Z,38.03
2018-11-21T05:36:37.555Z,37.33
2018-11-21T05:39:10.664Z,32.07
2018-11-21T05:41:39.590Z,31.10
2018-11-21T05:44:08.679Z,34.30
2018-11-21T05:46:37.632Z,36.37
2018-11-21T05:49:07.214Z,37.27
2018-11-21T05:51:36.174Z,37.93
2018-11-21T05:54:06.174Z,34.87
2018-11-21T05:56:35.075Z,33.30
2018-11-21T05:59:04.016Z,32.13
2018-11-21T06:01:32.915Z,32.43
2018-11-21T06:04:02.068Z,32.63
2018-11-21T06:06:30.920Z,35.17
2018-11-21T06:08:59.757Z,37.23
2018-11-21T06:11:28.723Z,31.40
2018-11-21T06:13:57.571Z,36.70
2018-11-21T06:16:26.467Z,38.03
2018-11-21T06:18:55.266Z,36.10
2018-11-21T06:21:24.318Z,32.47
2018-11-21T06:23:53.408Z,34.80
2018-11-21T06:26:22.263Z,35.43
2018-11-21T06:28:51.107Z,33.30
2018-11-21T06:31:20.002Z,31.13
2018-11-21T06:33:48.814Z,33.40
2018-11-21T06:36:17.951Z,36.63
2018-11-21T06:38:46.944Z,39.20
2018-11-21T06:41:15.748Z,36.47
2018-11-21T06:43:44.848Z,36.40
2018-11-21T06:46:13.842Z,29.87
2018-11-21T06:48:43.086Z,32.63
2018-11-21T06:51:12.159Z,36.50
2018-11-21T06:53:41.194Z,30.83
2018-11-21T06:56:10.284Z,35.40
2018-11-21T06:58:39.363Z,33.67
2018-11-21T07:01:08.224Z,36.90
2018-11-21T07:03:37.052Z,34.50
2018-11-21T07:06:06.054Z,33.93
2018-11-21T07:08:34.918Z,38.23
2018-11-21T07:11:04.262Z,35.00
2018-11-21T07:13:33.111Z,37.47
2018-11-21T07:16:01.949Z,33.87
2018-11-21T07:18:30.837Z,36.53
2018-11-21T07:20:59.996Z,31.10
2018-11-21T07:23:28.909Z,35.20
2018-11-21T07:25:58.131Z,28.73
2018-11-21T07:28:27.005Z,35.97
2018-11-21T07:30:56.372Z,33.07
2018-11-21T07:33:25.200Z,35.53
2018-11-21T07:35:54.031Z,37.00
2018-11-21T07:38:22.848Z,29.27
2018-11-21T07:40:52.177Z,31.73
2018-11-21T07:43:21.067Z,31.47
2018-11-21T07:45:50.449Z,38.93
2018-11-21T07:48:20.566Z,31.53
2018-11-21T07:50:47.944Z,37.63
2018-11-21T07:53:16.640Z,40.07
2018-11-21T07:55:45.701Z,35.17
2018-11-21T07:58:19.302Z,38.57
2018-11-21T08:00:56.895Z,40.03
2018-11-21T08:03:27.277Z,31.20
2018-11-21T08:06:05.747Z,35.27
2018-11-21T08:08:45.502Z,33.60
2018-11-21T08:11:32.459Z,30.57
2018-11-21T08:14:20.397Z,41.47
2018-11-21T08:17:26.981Z,37.10
2018-11-21T08:20:13.701Z,37.57
2018-11-21T08:22:49.850Z,41.23
2018-11-21T08:25:53.151Z,38.83
2018-11-21T08:28:30.597Z,37.00
2018-11-21T08:30:59.552Z,37.20
2018-11-21T08:33:33.891Z,39.07
2018-11-21T08:35:58.723Z,35.40
2018-11-21T08:38:27.583Z,41.87
2018-11-21T08:40:57.046Z,32.67
2018-11-21T08:43:25.911Z,38.67
2018-11-21T08:45:55.182Z,37.17
2018-11-21T08:48:24.253Z,32.97
2018-11-21T08:50:53.448Z,31.87
2018-11-21T08:53:22.347Z,36.03
2018-11-21T08:55:51.235Z,37.30
2018-11-21T08:58:20.129Z,38.17
2018-11-21T09:00:49.856Z,40.73
2018-11-21T09:03:18.728Z,34.20
2018-11-21T09:05:47.735Z,36.70
2018-11-21T09:08:16.909Z,40.10
2018-11-21T09:10:45.775Z,32.00
2018-11-21T09:13:14.641Z,36.30
2018-11-21T09:15:43.485Z,38.57
2018-11-21T09:18:12.853Z,41.37
2018-11-21T09:20:41.767Z,41.23
2018-11-21T09:23:11.390Z,42.77
2018-11-21T09:25:40.275Z,39.07
2018-11-21T09:28:09.091Z,40.77
2018-11-21T09:30:37.951Z,35.23
2018-11-21T09:33:06.886Z,37.47
2018-11-21T09:35:35.814Z,32.80
2018-11-21T09:38:04.723Z,37.83
2018-11-21T09:40:34.086Z,33.17
2018-11-21T09:43:02.926Z,34.53
2018-11-21T09:45:31.840Z,32.30
2018-11-21T09:48:00.897Z,37.93
2018-11-21T09:50:31.099Z,52.07
2018-11-21T09:53:00.014Z,34.77
2018-11-21T09:55:28.896Z,34.03
2018-11-21T09:57:57.792Z,30.83
2018-11-21T10:01:12.750Z,32.20
2018-11-21T10:03:41.685Z,28.20
2018-11-21T10:06:13.510Z,30.20
2018-11-21T10:08:53.592Z,28.37
2018-11-21T10:11:22.743Z,28.20
2018-11-21T10:13:52.843Z,30.00
2018-11-21T10:16:23.225Z,26.77
2018-11-21T10:18:53.661Z,29.77
2018-11-21T10:21:24.606Z,27.90
2018-11-21T10:23:53.460Z,34.27
2018-11-21T10:26:22.311Z,28.43
2018-11-21T10:28:52.206Z,29.73
2018-11-21T10:31:21.151Z,29.50
2018-11-21T10:33:50.086Z,28.23
2018-11-21T10:36:19.009Z,28.67
2018-11-21T10:38:48.454Z,27.00
2018-11-21T10:41:17.892Z,27.40
2018-11-21T10:43:46.697Z,28.30
2018-11-21T10:46:16.426Z,22.90
2018-11-21T10:48:45.781Z,26.20
2018-11-21T10:51:15.505Z,30.67
2018-11-21T10:53:45.098Z,26.03
2018-11-21T10:56:14.339Z,26.60
2018-11-21T10:58:43.269Z,28.90
2018-11-21T11:01:47.407Z,26.10
2018-11-21T11:04:41.862Z,23.77
2018-11-21T11:07:32.611Z,23.00
2018-11-21T11:10:19.521Z,24.63
2018-11-21T11:13:13.555Z,24.70
2018-11-21T11:16:20.237Z,22.77
2018-11-21T11:19:07.484Z,21.20
2018-11-21T11:21:54.374Z,24.50
2018-11-21T11:25:00.602Z,22.27
2018-11-21T11:27:48.560Z,23.27
2018-11-21T11:30:33.749Z,19.97
2018-11-21T11:33:34.497Z,17.63
2018-11-21T11:36:21.350Z,22.50
2018-11-21T11:39:07.768Z,22.37
2018-11-21T11:41:55.767Z,23.10
2018-11-21T11:44:49.685Z,23.83
2018-11-21T11:47:37.617Z,18.93
2018-11-21T11:50:15.664Z,18.73
2018-11-21T11:53:09.450Z,20.20
2018-11-21T11:56:00.394Z,22.13
2018-11-21T11:58:51.240Z,20.10
2018-11-21T12:01:34.357Z,18.43
2018-11-21T12:04:20.996Z,19.40
2018-11-21T12:07:15.105Z,21.13
2018-11-21T12:10:18.354Z,18.67
2018-11-21T12:13:00.272Z,18.37
2018-11-21T12:15:47.082Z,20.27
2018-11-21T12:18:38.350Z,19.30
2018-11-21T12:21:38.066Z,18.90
2018-11-21T12:24:25.995Z,20.70
2018-11-21T12:27:20.141Z,21.63
2018-11-21T12:30:11.718Z,21.63
2018-11-21T12:33:05.606Z,20.23
2018-11-21T12:36:01.311Z,20.57
2018-11-21T12:38:49.223Z,18.33
2018-11-21T12:41:46.149Z,21.40
2018-11-21T12:44:46.254Z,23.63
2018-11-21T12:47:46.605Z,20.60
2018-11-21T12:50:38.933Z,21.80
2018-11-21T12:53:34.658Z,28.67
2018-11-21T12:56:29.609Z,27.67
2018-11-21T12:59:34.313Z,25.07
2018-11-21T13:02:16.800Z,24.93
2018-11-21T13:05:19.651Z,31.70
2018-11-21T13:08:01.827Z,25.20
2018-11-21T13:10:52.449Z,26.60
2018-11-21T13:13:43.190Z,25.83
2018-11-21T13:17:04.888Z,23.83
2018-11-21T13:19:57.787Z,31.03
2018-11-21T13:23:06.878Z,29.83
2018-11-21T13:26:00.531Z,25.80
2018-11-21T13:29:10.069Z,29.13
2018-11-21T13:32:03.197Z,33.03
2018-11-21T13:34:51.355Z,35.43
2018-11-21T13:37:37.726Z,29.93
2018-11-21T13:40:40.927Z,27.77
2018-11-21T13:43:31.199Z,35.13
2018-11-21T13:46:17.578Z,36.90
2018-11-21T13:49:04.341Z,36.77
2018-11-21T13:51:55.362Z,31.23
2018-11-21T13:54:58.345Z,35.77
2018-11-21T13:57:27.409Z,35.43
2018-11-21T13:59:56.674Z,34.50
2018-11-21T14:02:26.006Z,40.30
2018-11-21T14:04:55.113Z,32.53
2018-11-21T14:07:25.084Z,35.53
2018-11-21T14:09:53.968Z,35.37
2018-11-21T14:12:22.816Z,31.40
2018-11-21T14:14:51.732Z,34.60
2018-11-21T14:17:27.390Z,37.23
2018-11-21T14:19:49.811Z,37.10
2018-11-21T14:22:18.969Z,30.00
2018-11-21T14:24:47.790Z,37.20
2018-11-21T14:27:16.597Z,37.33
2018-11-21T14:29:45.457Z,39.13
2018-11-21T14:32:14.670Z,36.70
2018-11-21T14:34:43.855Z,39.27
2018-11-21T14:37:13.054Z,37.20
2018-11-21T14:39:42.665Z,42.27
2018-11-21T14:42:11.534Z,43.33
2018-11-21T14:44:40.384Z,39.60
2018-11-21T14:47:11.964Z,42.33
2018-11-21T14:49:40.737Z,36.17
2018-11-21T14:52:09.660Z,35.17
2018-11-21T14:54:38.560Z,40.13
2018-11-21T14:57:07.497Z,42.97
2018-11-21T14:59:36.332Z,35.80
2018-11-21T15:02:05.930Z,39.63
2018-11-21T15:04:35.135Z,40.57
2018-11-21T15:07:04.028Z,35.87
2018-11-21T15:09:32.902Z,34.87
2018-11-21T15:12:02.257Z,32.90
2018-11-21T15:14:33.459Z,38.70
2018-11-21T15:17:07.089Z,36.97
2018-11-21T15:19:36.257Z,42.27
2018-11-21T15:22:05.177Z,33.67
2018-11-21T15:24:34.020Z,40.90
2018-11-21T15:27:02.848Z,35.03
2018-11-21T15:29:32.007Z,50.63
2018-11-21T15:32:01.055Z,41.37
2018-11-21T15:34:30.326Z,45.93
2018-11-21T15:36:59.207Z,41.77
2018-11-21T15:39:28.221Z,38.60
2018-11-21T15:41:57.231Z,36.57
2018-11-21T15:44:26.608Z,43.37
2018-11-21T15:46:56.344Z,45.17
2018-11-21T15:49:25.507Z,44.03
2018-11-21T15:52:01.292Z,43.20
2018-11-21T15:54:23.337Z,42.87
2018-11-21T15:56:52.322Z,45.33
2018-11-21T15:59:21.595Z,45.53
2018-11-21T16:01:50.626Z,48.13
2018-11-21T16:04:19.640Z,43.87
2018-11-21T16:06:48.487Z,49.63
2018-11-21T16:09:17.431Z,41.77
2018-11-21T16:11:46.299Z,49.73
2018-11-21T16:14:15.190Z,49.93
2018-11-21T16:16:44.172Z,48.63
2018-11-21T16:19:13.270Z,49.30
2018-11-21T16:21:42.332Z,46.13
2018-11-21T16:24:11.214Z,49.90
2018-11-21T16:26:40.128Z,52.83
2018-11-21T16:29:08.977Z,55.97
2018-11-21T16:31:37.834Z,48.77
2018-11-21T16:34:07.099Z,49.03
2018-11-21T16:36:36.055Z,48.23
2018-11-21T16:39:08.680Z,58.03
2018-11-21T16:41:37.642Z,48.80
2018-11-21T16:44:06.791Z,51.77
2018-11-21T16:46:35.718Z,50.53
2018-11-21T16:49:06.180Z,48.73
2018-11-21T16:51:35.177Z,45.60
2018-11-21T16:54:04.192Z,58.23
2018-11-21T16:56:33.094Z,56.53
2018-11-21T16:59:04.205Z,53.77
2018-11-21T17:01:33.109Z,58.73
2018-11-21T17:04:02.071Z,53.77
2018-11-21T17:06:30.867Z,54.33
2018-11-21T17:08:59.898Z,57.63
2018-11-21T17:11:28.716Z,55.87
2018-11-21T17:13:57.634Z,59.47
2018-11-21T17:16:26.489Z,52.10
2018-11-21T17:18:55.653Z,52.13
2018-11-21T17:21:24.551Z,60.53
2018-11-21T17:23:53.455Z,56.10
2018-11-21T17:26:22.373Z,54.13
2018-11-21T17:28:51.268Z,53.10
2018-11-21T17:31:20.625Z,61.33
2018-11-21T17:33:52.232Z,57.83
2018-11-21T17:36:19.266Z,44.63
2018-11-21T17:38:48.119Z,59.50
2018-11-21T17:41:17.564Z,46.40
2018-11-21T17:43:46.975Z,49.03
2018-11-21T17:46:16.083Z,44.60
2018-11-21T17:48:45.068Z,60.40
2018-11-21T17:51:15.194Z,50.60
2018-11-21T17:53:44.146Z,45.80
2018-11-21T17:56:14.229Z,57.17
2018-11-21T17:58:43.065Z,52.57
2018-11-21T18:01:14.018Z,67.63
2018-11-21T18:03:43.109Z,53.80
2018-11-21T18:06:12.081Z,50.23
2018-11-21T18:08:41.094Z,51.37
2018-11-21T18:11:10.570Z,61.50
2018-11-21T18:13:39.594Z,62.87
2018-11-21T18:16:08.786Z,60.13
2018-11-21T18:18:37.626Z,63.63
2018-11-21T18:21:06.481Z,59.57
2018-11-21T18:23:35.306Z,55.30
2018-11-21T18:26:07.169Z,66.63
2018-11-21T18:28:35.983Z,61.63
2018-11-21T18:31:04.962Z,48.60
2018-11-21T18:33:38.716Z,57.23
2018-11-21T18:36:07.552Z,63.33
2018-11-21T18:38:36.396Z,55.43
2018-11-21T18:41:05.219Z,59.13
2018-11-21T18:43:35.964Z,60.30
2018-11-21T18:46:04.710Z,62.07
2018-11-21T18:48:32.844Z,48.60
2018-11-21T18:51:01.675Z,53.93
2018-11-21T18:53:30.546Z,62.27
2018-11-21T18:56:42.548Z,60.47
2018-11-21T18:59:37.551Z,64.70
2018-11-21T19:02:06.698Z,43.43
2018-11-21T19:04:35.674Z,48.10
2018-11-21T19:07:04.547Z,52.20
2018-11-21T19:09:33.468Z,53.03
2018-11-21T19:12:02.349Z,52.27
2018-11-21T19:14:31.405Z,56.33
2018-11-21T19:17:00.239Z,45.87
2018-11-21T19:19:31.815Z,52.10
2018-11-21T19:22:01.479Z,49.57
2018-11-21T19:24:30.807Z,52.33
2018-11-21T19:26:59.820Z,60.40
2018-11-21T19:29:28.827Z,55.27
2018-11-21T19:31:58.115Z,45.40
2018-11-21T19:34:26.989Z,43.10
2018-11-21T19:36:56.821Z,48.87
2018-11-21T19:39:25.889Z,69.10
2018-11-21T19:41:54.923Z,61.10
2018-11-21T19:44:24.825Z,52.77
2018-11-21T19:46:54.017Z,63.57
2018-11-21T19:49:23.617Z,46.83
2018-11-21T19:51:53.008Z,64.23
2018-11-21T19:54:22.328Z,67.37
2018-11-21T19:56:51.573Z,57.23
2018-11-21T19:59:20.649Z,60.97
2018-11-21T20:01:50.026Z,64.83
2018-11-21T20:04:19.152Z,65.00
2018-11-21T20:06:48.538Z,68.40
2018-11-21T20:09:17.597Z,58.13
2018-11-21T20:11:46.674Z,58.50
2018-11-21T20:14:16.123Z,58.80
2018-11-21T20:16:45.110Z,61.93
2018-11-21T20:19:14.237Z,58.53
2018-11-21T20:21:43.309Z,61.20
2018-11-21T20:24:12.560Z,57.77
2018-11-21T20:26:41.659Z,57.83
2018-11-21T20:29:11.267Z,51.10
2018-11-21T20:31:40.578Z,59.17
2018-11-21T20:34:09.900Z,61.50
2018-11-21T20:36:38.976Z,59.57
2018-11-21T20:39:10.647Z,57.17
2018-11-21T20:41:40.607Z,59.30
2018-11-21T20:44:09.817Z,52.80
2018-11-21T20:46:38.893Z,51.33
2018-11-21T20:49:11.517Z,48.70
2018-11-21T20:51:37.227Z,57.00
2018-11-21T20:54:09.135Z,51.13
2018-11-21T20:56:38.107Z,46.90
2018-11-21T20:59:09.841Z,53.60
2018-11-21T21:01:39.306Z,60.20
2018-11-21T21:04:08.432Z,70.70
2018-11-21T21:06:37.616Z,53.17
2018-11-21T21:09:10.860Z,52.27
2018-11-21T21:11:40.335Z,52.40
2018-11-21T21:14:09.965Z,50.27
2018-11-21T21:16:39.368Z,62.00
2018-11-21T21:19:08.365Z,61.83
2018-11-21T21:21:38.163Z,48.93
2018-11-21T21:24:07.251Z,58.30
2018-11-21T21:26:36.152Z,45.60
2018-11-21T21:29:05.556Z,55.97
2018-11-21T21:31:34.547Z,60.90
2018-11-21T21:34:03.720Z,60.97
2018-11-21T21:36:33.034Z,61.50
2018-11-21T21:39:02.145Z,61.17
2018-11-21T21:41:31.197Z,52.83
2018-11-21T21:44:00.324Z,53.77
2018-11-21T21:46:29.713Z,54.13
2018-11-21T21:48:59.763Z,50.50
2018-11-21T21:51:27.969Z,56.70
2018-11-21T21:53:57.209Z,56.50
2018-11-21T21:56:26.442Z,70.80
2018-11-21T21:58:55.697Z,41.37
2018-11-21T22:01:25.759Z,50.73
2018-11-21T22:03:54.963Z,42.27
2018-11-21T22:06:23.899Z,45.83
2018-11-21T22:08:52.817Z,53.37
2018-11-21T22:11:21.706Z,60.47
2018-11-21T22:13:50.724Z,49.80
2018-11-21T22:16:19.647Z,57.67
2018-11-21T22:18:48.642Z,43.30
2018-11-21T22:21:17.698Z,38.80
2018-11-21T22:23:46.671Z,45.47
2018-11-21T22:26:15.624Z,32.47
2018-11-21T22:28:44.627Z,39.67
2018-11-21T22:31:13.718Z,43.97
2018-11-21T22:33:42.647Z,44.17
2018-11-21T22:36:11.694Z,39.87
2018-11-21T22:38:40.690Z,37.77
2018-11-21T22:41:09.630Z,44.73
2018-11-21T22:43:38.600Z,38.30
2018-11-21T22:46:07.497Z,37.87
2018-11-21T22:48:36.491Z,45.43
2018-11-21T22:51:05.461Z,36.03
2018-11-21T22:53:34.329Z,37.13
2018-11-21T22:56:03.339Z,38.10
2018-11-21T22:58:32.333Z,37.43
2018-11-21T23:01:01.389Z,34.23
2018-11-21T23:03:30.296Z,34.63
2018-11-21T23:05:59.405Z,42.77
2018-11-21T23:08:29.475Z,41.30
2018-11-21T23:10:58.322Z,39.93
2018-11-21T23:13:27.172Z,44.27
2018-11-21T23:15:56.176Z,42.33
2018-11-21T23:18:25.125Z,42.73
2018-11-21T23:20:54.100Z,42.93
2018-11-21T23:23:26.278Z,47.87
2018-11-21T23:25:55.109Z,46.13
2018-11-21T23:28:24.038Z,38.17
2018-11-21T23:30:52.931Z,42.40
